Redondo, Valles Caldera, New Mexico Weather observations

Data are for 10 minute period ending at time listed.
 Day   Time   Solar   Ave.   Ave.  Ave.  Vector  Max.   Baro.   Total    
  of    of     Rad.   Air    Rel.  Wind   Wind   Wind  Press.  Precip.   
Year   Day            Temp.  Hum.  Speed  Dir.   Gust                    
2014   (MST)  Kw/m2    F      %     mph   deg.    mph    mb.     in.     
-------------------------------------------------------------------------
 210    0:00   0.00   48.5    95    0.4   160     2.4   699.1    0.03 
 210    0:10   0.00   48.4    95    0.2   152     2.4   699.1    0.01 
 210    0:20   0.00   48.3    96    1.9   138     4.8   699.0    0.01 
 210    0:30   0.00   48.2    96    0.7   140     3.0   699.0    0.00 
 210    0:40   0.00   48.3    96    0.7   140     2.4   698.9    0.00 
 210    0:50   0.00   48.3    96    0.6   130     3.0   698.9    0.00 
 210    1:00   0.00   48.3    96    0.1   113     1.2   698.7    0.00 
 210    1:10   0.00   48.3    96    0.1   114     1.8   698.6    0.00 
 210    1:20   0.00   48.3    96    1.0   122     3.6   698.6    0.00 
 210    1:30   0.00   48.2    96    0.0   128     1.2   698.5    0.00 
 210    1:40   0.00   48.1    96    1.1   128     2.4   698.4    0.00 
 210    1:50   0.00   48.0    96    1.3   140     6.0   698.4    0.00 
 210    2:00   0.00   47.7    96    1.6   151     6.0   698.3    0.00 
 210    2:10   0.00   47.8    96    0.0     0     0.0   698.2    0.00 
 210    2:20   0.00   47.8    96    0.3    96     2.4   698.2    0.00 
 210    2:30   0.00   47.8    96    0.0     0     0.0   698.1    0.00 
 210    2:40   0.00   47.9    96    0.0     0     0.0   698.1    0.00 
 210    2:50   0.00   48.0    95    0.0     0     0.0   698.0    0.00 
 210    3:00   0.00   48.1    95    0.0     0     0.0   698.0    0.00 
 210    3:10   0.00   48.1    95    0.0     0     0.0   697.9    0.01 
 210    3:20   0.00   47.9    95    0.0     0     0.0   697.9    0.00 
 210    3:30   0.00   47.7    95    0.0     0     0.0   697.8    0.00 
 210    3:40   0.00   47.5    95    0.0     0     0.0   697.8    0.00 
 210    3:50   0.00   47.3    95    0.0     0     0.0   697.8    0.00 
 210    4:00   0.00   47.3    95    0.0     0     0.0   697.8    0.00 
 210    4:10   0.00   47.2    95    0.7   225     4.8   697.8    0.00 
 210    4:20   0.00   47.7    95    1.4   219     4.2   697.7    0.00 
 210    4:30   0.00   48.0    94    0.4   212     1.8   697.8    0.00 
 210    4:40   0.00   48.0    94    0.0   206     1.2   697.8    0.00 
 210    4:50   0.00   47.9    94    0.0     0     0.0   697.8    0.00 
 210    5:00   0.00   47.5    94    0.0     0     0.0   697.7    0.00 
 210    5:10   0.00   47.3    94    0.4   250     4.2   697.8    0.00 
 210    5:20   0.00   47.2    94    0.0     0     0.0   697.8    0.00 
 210    5:30   0.01   47.0    94    0.0   212     1.2   697.8    0.00 
 210    5:40   0.01   47.1    94    0.0     0     0.0   697.8    0.00 
 210    5:50   0.02   47.3    94    0.2   208     1.8   697.8    0.00 
 210    6:00   0.02   47.8    94    0.6   185     3.0   697.9    0.01 
 210    6:10   0.03   47.8    94    0.1   151     1.2   697.9    0.00 
 210    6:20   0.08   47.6    94    0.0   145     1.2   697.9    0.00 
 210    6:30   0.15   49.4    92    0.0     0     0.0   698.0    0.00 
 210    6:40   0.14   51.0    88    0.3    17     2.4   698.0    0.00 
 210    6:50   0.16   51.4    88    0.0     0     0.0   698.1    0.00 
 210    7:00   0.13   50.7    90    0.1    29     1.2   698.1    0.00 
 210    7:10   0.10   50.9    91    0.0   352     1.2   698.1    0.00 
 210    7:20   0.17   50.9    91    0.5   147     2.4   698.0    0.00 
 210    7:30   0.24   51.5    89    0.5    74     3.6   698.0    0.00 
 210    7:40   0.14   52.3    90    1.0   331     4.8   698.1    0.00 
 210    7:50   0.06   50.7    92    0.6   336     3.0   698.1    0.00 
 210    8:00   0.10   49.8    94    0.1   285     2.4   698.2    0.00 
 210    8:10   0.09   50.1    95    0.5   344     3.0   698.2    0.00 
 210    8:20   0.07   50.1    95    0.8   353     3.6   698.3    0.00 
 210    8:30   0.08   50.0    95    0.2   282     1.8   698.3    0.00 
 210    8:40   0.09   49.9    95    0.5   296     3.6   698.2    0.00 
 210    8:50   0.11   49.8    95    0.1   302     1.2   698.2    0.00 
 210    9:00   0.18   50.0    95    1.5   266     5.4   698.2    0.00 
 210    9:10   0.27   50.5    94    0.9   287     4.8   698.1    0.00 
 210    9:20   0.54   51.6    94    2.0   254     6.6   698.1    0.00 
 210    9:30   0.43   53.3    88    2.3   266     4.8   698.1    0.00 
 210    9:40   0.52   52.4    88    1.8   276     6.6   698.0    0.00 
 210    9:50   0.58   54.1    86    1.7   266     4.2   698.0    0.00 
 210   10:00   0.17   52.6    87    2.7   293     6.6   698.0    0.00 
 210   10:10   0.43   52.1    88    2.0   284     6.6   697.9    0.00 
 210   10:20   0.95   55.5    83    2.7   268     6.6   697.9    0.00 
 210   10:30   0.92   56.8    80    2.8   288     8.4   697.8    0.00 
 210   10:40   1.11   57.3    76    3.4   232     7.8   697.7    0.00 
 210   10:50   0.98   57.1    77    3.7   256     6.6   697.7    0.00 
 210   11:00   1.09   57.5    76    3.1   232     6.0   697.5    0.00 
 210   11:10   1.04   57.6    77    4.0   272     7.8   697.5    0.00 
 210   11:20   0.95   58.0    77    3.4   260     9.0   697.5    0.00 
 210   11:30   100.00   58.8    76    3.7   267     8.4   697.4    0.00 
 210   11:40   0.32   55.6    83    4.5   263     9.0   697.4    0.00 
 210   11:50   0.30   53.2    91    4.2   295     7.8   697.3    0.02 
 210   12:00   0.50   53.7    92    4.0   312     7.8   697.3    0.00 
 210   12:10   0.38   53.7    91    3.8   303     8.4   697.4    0.00 
 210   12:20   0.19   52.6    93    4.3   303     8.4   697.4    0.00 
 210   12:30   0.20   52.5    94    3.3   312     7.8   697.4    0.00 
 210   12:40   0.70   54.4    90    3.0   318     7.2   697.3    0.00 
 210   12:50   0.80   56.8    83    1.8   313     4.8   697.2    0.00 
 210   13:00   0.39   56.6    82    2.7   298     6.0   697.1    0.00 
 210   13:10   0.17   54.6    85    3.4   288     7.2   697.2    0.00 
 210   13:20   0.08   53.4    90    1.9   286     4.2   697.1    0.03 
 210   13:30   0.04   52.6    93    0.9   318     3.6   697.1    0.00 
 210   13:40   0.03   51.9    93    2.4   322    10.2   697.1    0.04 
 210   13:50   0.50   52.4    94    0.4   318     3.0   697.1    0.02 
 210   14:00   0.36   53.5    88    1.4   318     4.8   697.2    0.00 
 210   14:10   0.90   56.0    81    2.2   318     7.8   697.0    0.00 
 210   14:20   0.75   58.4    76    1.8   310     6.6   697.0    0.00 

Return to Redondo, Valles Caldera graphs page.


Western Regional Climate Center,wrcc@dri.edu